Van Wert, OH

10:38 AM EST on December 21, 2014 (GMT -0500)
N1ICS - Ridge Township, OH | Change Station
CLOSE
Current Station
Personal Weather Station
Location: Van Wert, OH
Elevation: 784 ft
Nearby Weather Stations

Elev 784 ft 40.85 °N, 84.48 °W | Updated 3 minutes ago

Overcast
Overcast
32.4 °F
Feels Like 27 °F
N
6.0
Wind Variable Wind from SSW
Gusts 7.0 mph

Today
High -- | Low -- °F
--% Chance of Precip.
Yesterday
High -- | Low -- °F
Precip. -- in
7:59 AM 5:13 PM
Waning Crescent, 0% visible
Pressure 30.34 in
Visibility 3.0 miles
Clouds Few 2100 ft
Overcast 5500 ft
Windchill 27 °F
Dew Point 26 °F
Humidity 76%
Rainfall 0.00 in
Snow Depth Not available.
UV 0 out of 12
Pollen .10 out of 12
Air Quality Not available.
Flu Activity Not available.
METAR KAOH 211453Z AUTO 18004KT 3SM HZ FEW021 OVC055 M01/M03 A3030 RMK AO2 SLP272 T10061033 53002

More Conditions Fewer Conditions

Pressure 30.34 in
Visibility 3.0 miles
Clouds Few 2100 ft
Overcast 5500 ft
Windchill 27 °F
Dew Point 26 °F
Humidity 76%
Rainfall 0.00 in
Snow Depth Not available.
UV 0 out of 12
Pollen .10 out of 12
Air Quality Not available.
Flu Activity Not available.
METAR KAOH 211453Z AUTO 18004KT 3SM HZ FEW021 OVC055 M01/M03 A3030 RMK AO2 SLP272 T10061033 53002

More Conditions Fewer Conditions

10-Day Weather Forecast

Almanac

Astronomy

Dec. 21, 2014 Rise Set
Actual Time
Civil Twilight
Nautical Twilight
Astronomical Twilight
Moon
Length of Visible Light
Length of Day
Tomorrow will be .
, % of the Moon is Illuminated

Today's Extremes

State Highs State Lows

Community

WunderPhotos

Upload Photos

1,779,412 photos uploaded!

WunderBlogs® & News

Nearby

Air Quality

  Air Quality AQ Index Pollutant
Not available.

Snow Depth

Station Depth Elevation

Earthquake Activity

City Distance Mag. Time & Date
Minimum magnitude displayed is 2.5.

Coastal Water Temperatures

Place Temperature

Nearby Weather Stations